Time;durP1;ratioP1;P1;durP2;ratioP2;P2;SDS_P1;SDS_P2;PMS_P1;PMS_P2;Temp;Humidity;BMP_temperature;BMP_pressure;BME280_temperature;BME280_humidity;BME280_pressure;Samples;Min_cycle;Max_cycle;Signal;HPM_P1;HPM_P2
2022/10/03 00:01:59;;;;;;;12.07;3.00;;;;;;;;;;5072840;28;20542;-63
2022/10/03 00:04:38;;;;;;;15.63;3.20;;;;;;;;;;5072712;28;20535;-63
2022/10/03 00:07:11;;;;;;;14.70;3.47;;;;;;;;;;5073110;28;20479;-63
2022/10/03 00:09:49;;;;;;;10.20;3.83;;;;;;;;;;5072798;28;20451;-63
2022/10/03 00:12:21;;;;;;;17.00;5.10;;;;;;;;;;5072642;28;21027;-64
2022/10/03 00:14:53;;;;;;;17.03;3.37;;;;;;;;;;5072615;28;20542;-64
2022/10/03 00:17:26;;;;;;;10.30;3.27;;;;;;;;;;5072500;28;20458;-64
2022/10/03 00:19:56;;;;;;;10.40;3.70;;;;;;;;;;5072712;28;20542;-64
2022/10/03 00:22:30;;;;;;;21.37;6.00;;;;;;;;;;5072864;28;20463;-64
2022/10/03 00:25:02;;;;;;;13.23;4.83;;;;;;;;;;5072775;28;20861;-63
2022/10/03 00:27:33;;;;;;;16.37;3.10;;;;;;;;;;5072630;28;20546;-63
2022/10/03 00:30:03;;;;;;;12.80;2.60;;;;;;;;;;5072788;28;21020;-64
2022/10/03 00:32:40;;;;;;;8.10;2.40;;;;;;;;;;5072547;28;20455;-63
2022/10/03 00:35:15;;;;;;;10.17;2.77;;;;;;;;;;5072541;28;20538;-63
2022/10/03 00:37:48;;;;;;;10.40;2.47;;;;;;;;;;5072339;28;20530;-64
2022/10/03 00:40:35;;;;;;;10.87;3.13;;;;;;;;;;5072309;28;20803;-64
2022/10/03 00:43:18;;;;;;;18.47;2.87;;;;;;;;;;5072502;28;20538;-64
2022/10/03 00:45:55;;;;;;;10.00;2.90;;;;;;;;;;5072467;28;20811;-64
2022/10/03 00:48:46;;;;;;;8.73;2.00;;;;;;;;;;5076022;28;20955;-64
2022/10/03 00:51:22;;;;;;;5.87;2.57;;;;;;;;;;5076359;28;20997;-64
2022/10/03 00:53:58;;;;;;;12.53;3.10;;;;;;;;;;5076103;28;20475;-64
2022/10/03 00:56:36;;;;;;;11.00;2.43;;;;;;;;;;5076009;28;20537;-64
2022/10/03 00:59:13;;;;;;;6.90;1.90;;;;;;;;;;5075776;28;20475;-64
2022/10/03 01:01:44;;;;;;;6.63;2.10;;;;;;;;;;5075948;28;20538;-64
2022/10/03 01:04:22;;;;;;;14.23;2.50;;;;;;;;;;5075728;28;20939;-64
2022/10/03 01:06:53;;;;;;;9.80;2.30;;;;;;;;;;5075793;28;20451;-64
2022/10/03 01:09:27;;;;;;;9.40;2.90;;;;;;;;;;5075715;28;20451;-64
2022/10/03 01:12:01;;;;;;;11.80;3.10;;;;;;;;;;5075899;28;20497;-64
2022/10/03 01:14:38;;;;;;;14.30;2.60;;;;;;;;;;5075722;28;20543;-64
2022/10/03 01:17:10;;;;;;;11.33;3.00;;;;;;;;;;5075566;28;20453;-64
2022/10/03 01:19:56;;;;;;;13.00;2.80;;;;;;;;;;5075372;28;20514;-64
2022/10/03 01:22:32;;;;;;;9.50;2.57;;;;;;;;;;5075706;28;20455;-64
2022/10/03 01:25:08;;;;;;;12.00;3.00;;;;;;;;;;5075527;28;20479;-64
2022/10/03 01:30:21;;;;;;;7.60;2.63;;;;;;;;;;5075453;28;20443;-64
2022/10/03 01:30:29;;;;;;;8.50;2.33;;;;;;;;;;5075339;28;20443;-64
2022/10/03 01:33:01;;;;;;;10.77;3.27;;;;;;;;;;5075511;28;20467;-64
2022/10/03 01:35:32;;;;;;;6.93;2.20;;;;;;;;;;5075394;28;20534;-64
2022/10/03 01:38:05;;;;;;;14.33;3.10;;;;;;;;;;5075219;28;20447;-64
2022/10/03 01:40:35;;;;;;;7.27;2.53;;;;;;;;;;5075076;28;20455;-64
2022/10/03 01:43:16;;;;;;;9.87;2.77;;;;;;;;;;5075180;28;20818;-64
2022/10/03 01:45:50;;;;;;;15.10;3.40;;;;;;;;;;5074998;28;20501;-64
2022/10/03 01:48:22;;;;;;;13.63;3.03;;;;;;;;;;5074878;28;20475;-64
2022/10/03 01:50:53;;;;;;;12.93;3.07;;;;;;;;;;5074936;28;20587;-64
2022/10/03 01:53:24;;;;;;;8.00;2.47;;;;;;;;;;5075127;28;20493;-64
2022/10/03 01:55:55;;;;;;;14.00;3.63;;;;;;;;;;5075060;28;20461;-64
2022/10/03 01:58:25;;;;;;;8.63;2.67;;;;;;;;;;5074329;28;20478;-64
2022/10/03 02:00:57;;;;;;;9.60;2.27;;;;;;;;;;5074710;28;20460;-64
2022/10/03 02:03:26;;;;;;;4.20;2.13;;;;;;;;;;5074626;28;20803;-64
2022/10/03 02:05:58;;;;;;;9.87;2.60;;;;;;;;;;5074805;28;20489;-64
2022/10/03 02:08:32;;;;;;;12.93;3.10;;;;;;;;;;5074808;28;20822;-64
2022/10/03 02:11:01;;;;;;;7.37;2.10;;;;;;;;;;5074601;28;20887;-64
2022/10/03 02:13:31;;;;;;;8.77;2.60;;;;;;;;;;5074537;28;20509;-64
2022/10/03 02:16:06;;;;;;;5.27;1.97;;;;;;;;;;5074419;28;20573;-64
2022/10/03 02:18:38;;;;;;;5.43;2.50;;;;;;;;;;5074505;28;20502;-64
2022/10/03 02:21:09;;;;;;;8.03;1.93;;;;;;;;;;5074683;28;20995;-64
2022/10/03 02:23:42;;;;;;;8.43;1.77;;;;;;;;;;5074354;28;20451;-64
2022/10/03 02:26:21;;;;;;;13.83;2.50;;;;;;;;;;5074213;28;20815;-64
2022/10/03 02:28:59;;;;;;;10.03;3.17;;;;;;;;;;5074430;28;20451;-64
2022/10/03 02:31:44;;;;;;;11.07;2.67;;;;;;;;;;5074298;28;20963;-64
2022/10/03 02:34:22;;;;;;;5.40;1.90;;;;;;;;;;5073785;28;20494;-64
2022/10/03 02:37:00;;;;;;;7.87;2.67;;;;;;;;;;5073952;28;20501;-64
2022/10/03 02:39:44;;;;;;;8.27;3.20;;;;;;;;;;5074005;28;20625;-64
2022/10/03 02:42:28;;;;;;;9.77;2.33;;;;;;;;;;5074015;28;20542;-64
2022/10/03 02:45:04;;;;;;;7.67;2.57;;;;;;;;;;5073880;28;20530;-64
2022/10/03 02:47:43;;;;;;;19.43;2.80;;;;;;;;;;5073706;28;20520;-64
2022/10/03 02:50:25;;;;;;;8.17;2.07;;;;;;;;;;5073858;28;20541;-64
2022/10/03 02:53:03;;;;;;;11.23;2.20;;;;;;;;;;5072024;28;20534;-64
2022/10/03 02:55:47;;;;;;;7.27;2.10;;;;;;;;;;5073593;28;20542;-64
2022/10/03 02:58:38;;;;;;;11.97;2.80;;;;;;;;;;5073714;28;20531;-64
2022/10/03 03:01:29;;;;;;;4.60;2.03;;;;;;;;;;5063198;28;20551;-64
2022/10/03 03:04:23;;;;;;;9.90;2.63;;;;;;;;;;5073385;28;20526;-64
2022/10/03 03:06:58;;;;;;;12.27;2.80;;;;;;;;;;5073343;28;20443;-64
2022/10/03 03:09:44;;;;;;;5.60;1.80;;;;;;;;;;5072759;28;20491;-64
2022/10/03 03:12:34;;;;;;;6.10;2.03;;;;;;;;;;5073334;28;20824;-64
2022/10/03 03:15:31;;;;;;;4.90;2.10;;;;;;;;;;5073443;28;20443;-64
2022/10/03 03:18:04;;;;;;;8.83;1.73;;;;;;;;;;5073302;28;20475;-64
2022/10/03 03:20:37;;;;;;;13.00;2.20;;;;;;;;;;5073138;28;20885;-64
2022/10/03 03:23:32;;;;;;;6.67;2.40;;;;;;;;;;5073360;28;20541;-64
2022/10/03 03:26:14;;;;;;;4.73;1.77;;;;;;;;;;5048808;28;20505;-64
2022/10/03 03:28:45;;;;;;;9.53;2.60;;;;;;;;;;5073158;28;20502;-64
2022/10/03 03:31:13;;;;;;;9.93;1.80;;;;;;;;;;5072999;28;20875;-64
2022/10/03 03:33:50;;;;;;;14.40;2.93;;;;;;;;;;5073122;28;20530;-64
2022/10/03 03:36:20;;;;;;;7.27;1.93;;;;;;;;;;5073081;28;20799;-64
2022/10/03 03:38:52;;;;;;;7.13;2.10;;;;;;;;;;5072993;28;20998;-64
2022/10/03 03:41:37;;;;;;;8.13;2.27;;;;;;;;;;5072890;28;20542;-64
2022/10/03 03:44:24;;;;;;;5.83;1.93;;;;;;;;;;5073075;28;20459;-64
2022/10/03 03:46:59;;;;;;;5.20;2.10;;;;;;;;;;5072784;28;20475;-64
2022/10/03 03:49:41;;;;;;;7.93;2.10;;;;;;;;;;5072864;28;20483;-64
2022/10/03 03:52:17;;;;;;;6.47;1.83;;;;;;;;;;5073027;28;20496;-64
2022/10/03 03:54:53;;;;;;;6.60;2.37;;;;;;;;;;5073008;28;20509;-64
2022/10/03 03:57:50;;;;;;;7.37;1.97;;;;;;;;;;5072811;28;20451;-64
2022/10/03 04:00:20;;;;;;;5.67;2.00;;;;;;;;;;5030464;28;20487;-64
2022/10/03 04:02:58;;;;;;;8.63;1.77;;;;;;;;;;5063492;28;20452;-64
2022/10/03 04:05:29;;;;;;;13.30;2.30;;;;;;;;;;5072810;28;20534;-64
2022/10/03 04:08:10;;;;;;;10.47;2.13;;;;;;;;;;5072671;28;20471;-64
2022/10/03 04:10:44;;;;;;;8.37;2.13;;;;;;;;;;5072575;28;20473;-63
2022/10/03 04:13:17;;;;;;;6.73;2.00;;;;;;;;;;5072794;28;20977;-64
2022/10/03 04:15:53;;;;;;;10.67;2.77;;;;;;;;;;5072685;28;20542;-64
2022/10/03 04:21:29;;;;;;;7.73;2.00;;;;;;;;;;5075139;28;20807;-63
2022/10/03 04:24:03;;;;;;;8.03;2.10;;;;;;;;;;5076920;28;20753;-63
2022/10/03 04:26:37;;;;;;;5.17;2.20;;;;;;;;;;5076750;28;20485;-63
2022/10/03 04:29:28;;;;;;;7.80;2.60;;;;;;;;;;5076539;28;20507;-63
2022/10/03 04:32:01;;;;;;;6.17;2.13;;;;;;;;;;5076878;28;20479;-63
2022/10/03 04:34:38;;;;;;;8.37;2.60;;;;;;;;;;5076467;28;20475;-63
2022/10/03 04:37:18;;;;;;;8.67;1.80;;;;;;;;;;5076407;28;20474;-63
2022/10/03 04:39:49;;;;;;;5.73;1.80;;;;;;;;;;5076091;28;21027;-63
2022/10/03 04:42:26;;;;;;;5.93;1.83;;;;;;;;;;5076406;28;20486;-64
2022/10/03 04:45:05;;;;;;;8.30;1.90;;;;;;;;;;5076052;28;20451;-63
2022/10/03 04:47:37;;;;;;;9.10;2.57;;;;;;;;;;5075992;28;20565;-64
2022/10/03 04:50:09;;;;;;;5.40;2.07;;;;;;;;;;5076044;28;20851;-64
2022/10/03 04:52:39;;;;;;;6.30;2.17;;;;;;;;;;5076226;28;20447;-64
2022/10/03 04:55:08;;;;;;;7.10;2.00;;;;;;;;;;5076344;28;20485;-64
2022/10/03 04:57:37;;;;;;;10.73;2.17;;;;;;;;;;5075995;28;20760;-64
2022/10/03 05:00:08;;;;;;;9.37;2.03;;;;;;;;;;5075799;28;20839;-64
2022/10/03 05:02:43;;;;;;;6.83;1.90;;;;;;;;;;5075779;28;20451;-64
2022/10/03 05:05:20;;;;;;;9.67;2.43;;;;;;;;;;5075783;28;20953;-64
2022/10/03 05:07:52;;;;;;;7.73;2.50;;;;;;;;;;5075714;28;21014;-64
2022/10/03 05:10:41;;;;;;;8.70;1.90;;;;;;;;;;5075704;28;20537;-64
2022/10/03 05:13:15;;;;;;;7.83;2.27;;;;;;;;;;5075550;28;20447;-63
2022/10/03 05:15:45;;;;;;;9.80;3.33;;;;;;;;;;5075820;28;20447;-64
2022/10/03 05:18:17;;;;;;;13.83;2.30;;;;;;;;;;5075524;28;20487;-63
2022/10/03 05:20:47;;;;;;;5.43;1.60;;;;;;;;;;5075429;28;21093;-64
2022/10/03 05:23:25;;;;;;;5.77;1.90;;;;;;;;;;5075465;28;20803;-64
2022/10/03 05:25:59;;;;;;;8.10;2.23;;;;;;;;;;5075861;28;20819;-64
2022/10/03 05:28:32;;;;;;;5.97;1.80;;;;;;;;;;5075359;28;20542;-64
2022/10/03 05:31:04;;;;;;;5.00;2.20;;;;;;;;;;5075362;28;20451;-64
2022/10/03 05:33:39;;;;;;;7.90;2.50;;;;;;;;;;5074360;28;20447;-64
2022/10/03 05:36:13;;;;;;;7.47;2.60;;;;;;;;;;5075445;28;20517;-64
2022/10/03 05:38:53;;;;;;;6.90;2.27;;;;;;;;;;5075325;28;20509;-64
2022/10/03 05:41:21;;;;;;;8.43;2.40;;;;;;;;;;5075106;28;20566;-64
2022/10/03 05:43:57;;;;;;;11.20;2.20;;;;;;;;;;5075098;28;20487;-64
2022/10/03 05:46:33;;;;;;;6.57;1.93;;;;;;;;;;5074734;28;20486;-64
2022/10/03 05:49:07;;;;;;;12.30;2.27;;;;;;;;;;5075321;28;20486;-64
2022/10/03 05:51:46;;;;;;;11.20;1.87;;;;;;;;;;5075075;28;20509;-64
2022/10/03 05:54:44;;;;;;;6.40;2.33;;;;;;;;;;5074934;28;20459;-63
2022/10/03 05:57:32;;;;;;;11.93;2.77;;;;;;;;;;5075031;28;20458;-64
2022/10/03 06:00:14;;;;;;;4.70;1.90;;;;;;;;;;5057325;28;21042;-63
2022/10/03 06:02:52;;;;;;;11.93;2.30;;;;;;;;;;5073286;28;20458;-63
2022/10/03 06:05:32;;;;;;;6.10;1.90;;;;;;;;;;5074895;28;20447;-64
2022/10/03 06:08:14;;;;;;;8.27;2.93;;;;;;;;;;5074704;28;20490;-64
2022/10/03 06:10:48;;;;;;;5.63;1.67;;;;;;;;;;5074580;28;20459;-63
2022/10/03 06:13:19;;;;;;;5.93;2.17;;;;;;;;;;5074463;28;20450;-64
2022/10/03 06:15:58;;;;;;;9.37;2.00;;;;;;;;;;5074434;28;20486;-64
2022/10/03 06:18:43;;;;;;;10.90;2.60;;;;;;;;;;5074627;28;20520;-64
2022/10/03 06:21:19;;;;;;;8.13;2.33;;;;;;;;;;5074251;28;20575;-64
2022/10/03 06:24:06;;;;;;;8.60;2.27;;;;;;;;;;5074211;28;20447;-63
2022/10/03 06:26:40;;;;;;;6.43;1.80;;;;;;;;;;5074377;28;20475;-64
2022/10/03 06:29:29;;;;;;;7.60;2.03;;;;;;;;;;5074317;28;20502;-63
2022/10/03 06:32:19;;;;;;;14.63;4.00;;;;;;;;;;5074149;28;20532;-63
2022/10/03 06:35:04;;;;;;;10.10;2.20;;;;;;;;;;5074096;28;20486;-64
2022/10/03 06:37:43;;;;;;;12.67;2.13;;;;;;;;;;5074089;28;20509;-64
2022/10/03 06:40:25;;;;;;;12.10;2.27;;;;;;;;;;5073921;28;20514;-64
2022/10/03 06:42:57;;;;;;;5.80;1.93;;;;;;;;;;5073797;28;20534;-63
2022/10/03 06:45:47;;;;;;;8.63;2.70;;;;;;;;;;5073782;28;20950;-63
2022/10/03 06:48:28;;;;;;;10.67;2.70;;;;;;;;;;5073620;28;20570;-63
2022/10/03 06:51:06;;;;;;;8.37;2.27;;;;;;;;;;5073707;28;20483;-63
2022/10/03 06:53:47;;;;;;;3.67;1.77;;;;;;;;;;5073790;28;20483;-63
2022/10/03 06:56:37;;;;;;;9.17;1.77;;;;;;;;;;5073766;28;20500;-64
2022/10/03 06:59:10;;;;;;;10.83;2.47;;;;;;;;;;5073531;28;20796;-63
2022/10/03 07:01:49;;;;;;;10.70;2.20;;;;;;;;;;5073397;28;20561;-64
2022/10/03 07:04:40;;;;;;;7.07;1.90;;;;;;;;;;5073720;28;20457;-63
2022/10/03 07:07:14;;;;;;;14.20;1.83;;;;;;;;;;5073554;28;20486;-64
2022/10/03 07:09:59;;;;;;;5.70;2.10;;;;;;;;;;5073278;28;20450;-64
2022/10/03 07:12:48;;;;;;;14.73;2.03;;;;;;;;;;5073510;28;20534;-64
2022/10/03 07:15:21;;;;;;;9.37;3.43;;;;;;;;;;5073329;28;20487;-63
2022/10/03 07:17:57;;;;;;;8.97;2.43;;;;;;;;;;5073302;28;20456;-63
2022/10/03 07:20:36;;;;;;;8.30;2.00;;;;;;;;;;5073332;28;20569;-63
2022/10/03 07:23:19;;;;;;;7.80;1.67;;;;;;;;;;5073075;28;21018;-63
2022/10/03 07:26:00;;;;;;;11.50;2.23;;;;;;;;;;5073232;28;20516;-64
2022/10/03 07:28:44;;;;;;;8.53;2.13;;;;;;;;;;5073073;28;20502;-64
2022/10/03 07:31:15;;;;;;;17.03;3.33;;;;;;;;;;5073183;28;20521;-63
2022/10/03 07:34:00;;;;;;;12.90;2.37;;;;;;;;;;5073164;28;20475;-64
2022/10/03 07:39:50;;;;;;;8.13;1.87;;;;;;;;;;5072859;28;20816;-63
2022/10/03 07:42:38;;;;;;;11.10;2.70;;;;;;;;;;5073052;28;20538;-63
2022/10/03 07:45:13;;;;;;;12.13;2.90;;;;;;;;;;5055468;28;20451;-63
2022/10/03 07:47:56;;;;;;;8.23;2.60;;;;;;;;;;5072705;28;20506;-63
2022/10/03 07:50:44;;;;;;;5.03;2.00;;;;;;;;;;5072894;28;20462;-63
2022/10/03 07:53:19;;;;;;;11.87;3.73;;;;;;;;;;5072788;28;20451;-63
2022/10/03 07:55:52;;;;;;;13.43;7.43;;;;;;;;;;5072286;28;20474;-63
2022/10/03 07:58:26;;;;;;;16.07;7.80;;;;;;;;;;5072906;28;20780;-63
2022/10/03 08:01:05;;;;;;;5.07;2.23;;;;;;;;;;5072801;28;20475;-63
2022/10/03 08:03:47;;;;;;;8.73;2.03;;;;;;;;;;5072609;28;20539;-63
2022/10/03 08:06:20;;;;;;;11.90;2.37;;;;;;;;;;5071418;28;20483;-63
2022/10/03 08:09:02;;;;;;;7.13;2.37;;;;;;;;;;5072733;28;20451;-63
2022/10/03 08:11:47;;;;;;;6.43;2.30;;;;;;;;;;5072663;28;20447;-63
2022/10/03 08:14:19;;;;;;;8.03;1.70;;;;;;;;;;5072605;28;20553;-64
2022/10/03 08:17:00;;;;;;;7.10;2.87;;;;;;;;;;5072527;28;20447;-65
2022/10/03 08:19:33;;;;;;;4.57;2.53;;;;;;;;;;5072485;28;20538;-64
2022/10/03 08:22:07;;;;;;;7.37;2.47;;;;;;;;;;5072495;28;20590;-64
2022/10/03 08:24:49;;;;;;;7.70;2.23;;;;;;;;;;5072517;28;20509;-63
2022/10/03 08:27:25;;;;;;;8.83;2.50;;;;;;;;;;5071242;28;20466;-64
2022/10/03 08:30:03;;;;;;;10.83;2.47;;;;;;;;;;5072593;28;20481;-64
2022/10/03 08:32:42;;;;;;;4.33;1.90;;;;;;;;;;5072544;28;20484;-63
2022/10/03 08:35:26;;;;;;;13.77;2.50;;;;;;;;;;5072377;28;20486;-63
2022/10/03 08:38:02;;;;;;;8.10;2.40;;;;;;;;;;5072339;28;21028;-64
2022/10/03 08:40:52;;;;;;;9.00;1.83;;;;;;;;;;5072290;28;21072;-64
2022/10/03 08:43:52;;;;;;;12.13;2.60;;;;;;;;;;5072239;28;20462;-64
2022/10/03 08:46:33;;;;;;;6.03;2.30;;;;;;;;;;5072044;28;20993;-64
2022/10/03 08:49:17;;;;;;;6.67;2.60;;;;;;;;;;5072127;28;20447;-64
2022/10/03 08:51:52;;;;;;;6.80;1.90;;;;;;;;;;5072044;28;20455;-64
2022/10/03 08:54:34;;;;;;;14.23;2.37;;;;;;;;;;5072284;28;20533;-64
2022/10/03 08:57:07;;;;;;;6.00;1.30;;;;;;;;;;5070474;28;20455;-64
2022/10/03 08:59:59;;;;;;;7.00;2.13;;;;;;;;;;5072170;28;20443;-64
2022/10/03 09:02:36;;;;;;;4.03;1.57;;;;;;;;;;5071985;28;20959;-64
2022/10/03 09:05:24;;;;;;;5.73;2.20;;;;;;;;;;5072267;28;20795;-64
2022/10/03 09:08:09;;;;;;;9.27;2.50;;;;;;;;;;5073703;28;20457;-63
2022/10/03 09:10:37;;;;;;;10.63;2.33;;;;;;;;;;5075559;28;20455;-64
2022/10/03 09:13:14;;;;;;;4.63;2.03;;;;;;;;;;5075639;28;20899;-64
2022/10/03 09:15:55;;;;;;;12.13;3.00;;;;;;;;;;5075637;28;20501;-64
2022/10/03 09:18:33;;;;;;;10.27;2.60;;;;;;;;;;5066576;28;20453;-64
2022/10/03 09:24:09;;;;;;;19.83;3.10;;;;;;;;;;5131136;27;20617;-62
2022/10/03 09:26:47;;;;;;;11.93;1.83;;;;;;;;;;5110464;28;20453;-62
2022/10/03 09:29:33;;;;;;;9.37;2.13;;;;;;;;;;5110506;28;20540;-62
2022/10/03 09:32:31;;;;;;;6.50;2.07;;;;;;;;;;5110644;28;20865;-61
2022/10/03 09:35:19;;;;;;;5.90;2.07;;;;;;;;;;5110381;28;20895;-62
2022/10/03 09:38:01;;;;;;;6.67;1.80;;;;;;;;;;5103632;28;20528;-63
2022/10/03 09:40:47;;;;;;;8.57;2.23;;;;;;;;;;5110421;28;20536;-63
2022/10/03 09:43:37;;;;;;;7.43;1.90;;;;;;;;;;5110367;28;20580;-63
2022/10/03 09:46:13;;;;;;;10.03;2.80;;;;;;;;;;5110175;28;20473;-63
2022/10/03 09:48:47;;;;;;;5.60;2.20;;;;;;;;;;5110208;28;20541;-63
2022/10/03 09:51:21;;;;;;;7.47;2.00;;;;;;;;;;5109925;28;20537;-63
2022/10/03 09:54:22;;;;;;;5.27;1.67;;;;;;;;;;5110039;28;20474;-63
2022/10/03 09:57:07;;;;;;;10.50;2.10;;;;;;;;;;5110115;28;20452;-63
2022/10/03 09:59:54;;;;;;;6.00;1.93;;;;;;;;;;5110123;28;20445;-63
2022/10/03 10:02:33;;;;;;;7.73;1.77;;;;;;;;;;5109910;28;20469;-63
2022/10/03 10:05:13;;;;;;;9.73;1.93;;;;;;;;;;5109803;28;20450;-63
2022/10/03 10:08:01;;;;;;;6.63;1.90;;;;;;;;;;5109988;28;20446;-63
2022/10/03 10:10:47;;;;;;;7.50;2.50;;;;;;;;;;5109623;28;20973;-63
2022/10/03 10:13:18;;;;;;;6.30;2.40;;;;;;;;;;5109500;28;20745;-63
2022/10/03 10:16:07;;;;;;;9.90;2.60;;;;;;;;;;5109736;28;20457;-63
2022/10/03 10:18:46;;;;;;;13.73;1.90;;;;;;;;;;5109625;28;20988;-63
2022/10/03 10:21:37;;;;;;;9.70;2.00;;;;;;;;;;5109501;28;20528;-63
2022/10/03 10:24:22;;;;;;;14.50;4.00;;;;;;;;;;5109520;28;20568;-63
2022/10/03 10:26:59;;;;;;;12.60;1.90;;;;;;;;;;5109358;28;20542;-63
2022/10/03 10:29:40;;;;;;;7.40;2.07;;;;;;;;;;5109413;28;20449;-63
2022/10/03 10:32:25;;;;;;;5.50;1.97;;;;;;;;;;5109447;28;20468;-63
2022/10/03 10:35:14;;;;;;;7.37;2.57;;;;;;;;;;5097882;28;20556;-63
2022/10/03 10:37:53;;;;;;;6.70;2.20;;;;;;;;;;5095728;28;20805;-63
2022/10/03 10:40:32;;;;;;;9.40;2.83;;;;;;;;;;5095904;28;20454;-63
2022/10/03 10:43:22;;;;;;;6.30;2.10;;;;;;;;;;5095376;28;20477;-63
2022/10/03 10:46:06;;;;;;;5.23;2.13;;;;;;;;;;5095531;28;20457;-63
2022/10/03 10:48:52;;;;;;;6.00;2.00;;;;;;;;;;5095434;28;20519;-63
2022/10/03 10:51:30;;;;;;;9.80;2.07;;;;;;;;;;5095474;28;20453;-63
2022/10/03 10:54:18;;;;;;;11.10;3.13;;;;;;;;;;5095416;28;20457;-63
2022/10/03 10:56:59;;;;;;;7.67;2.03;;;;;;;;;;5095366;28;20442;-63
2022/10/03 10:59:41;;;;;;;8.67;1.93;;;;;;;;;;5095530;28;20537;-63
2022/10/03 11:02:33;;;;;;;3.93;1.60;;;;;;;;;;5095274;28;20565;-63
2022/10/03 11:05:34;;;;;;;8.30;2.10;;;;;;;;;;5095157;28;20450;-64
2022/10/03 11:08:17;;;;;;;5.03;1.67;;;;;;;;;;5095094;28;20949;-63
2022/10/03 11:10:52;;;;;;;6.20;1.60;;;;;;;;;;5095185;28;20533;-63
2022/10/03 11:13:34;;;;;;;6.00;1.60;;;;;;;;;;5094939;28;20452;-63
2022/10/03 11:16:24;;;;;;;4.50;1.50;;;;;;;;;;5095198;28;20843;-63
2022/10/03 11:19:18;;;;;;;6.70;1.83;;;;;;;;;;5095020;28;20498;-63
2022/10/03 11:22:04;;;;;;;7.03;1.33;;;;;;;;;;5094579;28;20909;-63
2022/10/03 11:24:52;;;;;;;4.77;1.63;;;;;;;;;;5095129;28;20458;-63
2022/10/03 11:27:33;;;;;;;5.83;1.90;;;;;;;;;;5094870;28;20868;-63
2022/10/03 11:30:05;;;;;;;6.63;1.83;;;;;;;;;;5094681;28;20451;-64
2022/10/03 11:32:51;;;;;;;4.10;1.87;;;;;;;;;;5094872;28;20917;-63
2022/10/03 11:35:32;;;;;;;7.47;2.50;;;;;;;;;;5094776;28;20541;-66
2022/10/03 11:38:02;;;;;;;8.70;1.70;;;;;;;;;;5094690;28;20537;-63
2022/10/03 11:40:36;;;;;;;5.70;2.17;;;;;;;;;;5094498;28;20453;-63
2022/10/03 11:43:22;;;;;;;7.07;1.77;;;;;;;;;;5094322;28;20547;-63
2022/10/03 11:45:54;;;;;;;5.80;1.60;;;;;;;;;;5093473;28;20453;-63
2022/10/03 11:48:32;;;;;;;5.07;1.50;;;;;;;;;;5094395;28;20455;-63
2022/10/03 11:51:01;;;;;;;8.43;1.87;;;;;;;;;;5094264;28;20446;-64
2022/10/03 11:53:34;;;;;;;8.13;2.40;;;;;;;;;;5094281;28;20541;-64
2022/10/03 11:56:11;;;;;;;5.97;3.17;;;;;;;;;;5094332;28;20533;-64
2022/10/03 11:58:49;;;;;;;5.17;1.47;;;;;;;;;;5094291;28;20787;-64
2022/10/03 12:01:24;;;;;;;6.13;1.87;;;;;;;;;;5094021;28;20481;-64
2022/10/03 12:03:54;;;;;;;7.27;2.10;;;;;;;;;;5094213;28;20841;-64
2022/10/03 12:09:17;;;;;;;4.60;1.43;;;;;;;;;;5094108;28;21078;-64
2022/10/03 12:11:50;;;;;;;6.37;1.73;;;;;;;;;;5093861;28;20856;-63
2022/10/03 12:14:23;;;;;;;8.30;1.90;;;;;;;;;;5093869;28;20447;-64
2022/10/03 12:16:57;;;;;;;4.60;1.60;;;;;;;;;;5093955;28;20537;-64
2022/10/03 12:19:29;;;;;;;5.50;1.60;;;;;;;;;;5093831;28;20533;-64
2022/10/03 12:21:58;;;;;;;5.57;1.70;;;;;;;;;;5093606;28;20612;-64
2022/10/03 12:24:26;;;;;;;4.90;1.40;;;;;;;;;;5093473;28;20488;-64
2022/10/03 12:26:55;;;;;;;3.50;1.90;;;;;;;;;;5093809;28;20814;-64
2022/10/03 12:29:25;;;;;;;4.00;1.53;;;;;;;;;;5093621;28;20541;-64
2022/10/03 12:31:59;;;;;;;6.37;1.87;;;;;;;;;;5093463;28;20533;-64
2022/10/03 12:34:36;;;;;;;3.23;1.33;;;;;;;;;;5093592;28;20895;-64
2022/10/03 12:37:14;;;;;;;4.33;1.93;;;;;;;;;;5093589;28;20457;-64
2022/10/03 12:39:46;;;;;;;8.73;1.60;;;;;;;;;;5093489;28;20541;-64
2022/10/03 12:42:26;;;;;;;5.27;1.60;;;;;;;;;;5093471;28;20558;-64
2022/10/03 12:44:56;;;;;;;4.03;1.43;;;;;;;;;;5093201;28;20537;-64
2022/10/03 12:47:43;;;;;;;6.73;2.10;;;;;;;;;;5093193;28;20521;-64
2022/10/03 12:50:19;;;;;;;3.47;1.80;;;;;;;;;;5093254;28;20963;-64
2022/10/03 12:52:50;;;;;;;5.80;2.30;;;;;;;;;;5093156;28;20442;-64
2022/10/03 12:55:23;;;;;;;6.00;1.77;;;;;;;;;;5093303;28;20458;-64
2022/10/03 12:57:56;;;;;;;23.43;2.40;;;;;;;;;;5092942;28;20450;-64
2022/10/03 13:00:25;;;;;;;4.20;1.77;;;;;;;;;;5093457;28;20878;-64
2022/10/03 13:03:05;;;;;;;6.37;1.87;;;;;;;;;;5092968;28;20470;-64
2022/10/03 13:05:48;;;;;;;6.13;1.73;;;;;;;;;;5093057;28;20537;-64
2022/10/03 13:08:27;;;;;;;4.90;1.60;;;;;;;;;;5081091;28;20511;-64
2022/10/03 13:10:56;;;;;;;3.83;1.40;;;;;;;;;;5093185;28;20540;-64
2022/10/03 13:13:27;;;;;;;5.30;1.63;;;;;;;;;;5092979;28;20454;-64
2022/10/03 13:16:06;;;;;;;4.23;1.40;;;;;;;;;;5092995;28;20549;-64
2022/10/03 13:18:37;;;;;;;4.10;1.80;;;;;;;;;;5092878;28;20534;-64
2022/10/03 13:21:08;;;;;;;3.13;1.53;;;;;;;;;;5093118;28;20968;-64
2022/10/03 13:23:42;;;;;;;5.23;1.40;;;;;;;;;;5092561;28;20478;-64
2022/10/03 13:26:12;;;;;;;4.20;1.80;;;;;;;;;;5092775;28;20477;-63
2022/10/03 13:28:47;;;;;;;4.33;1.60;;;;;;;;;;5092654;28;20875;-63
2022/10/03 13:31:18;;;;;;;4.60;1.57;;;;;;;;;;5092939;28;20450;-64
2022/10/03 13:33:46;;;;;;;5.77;1.43;;;;;;;;;;5092792;28;20457;-64
2022/10/03 13:36:18;;;;;;;5.70;2.27;;;;;;;;;;5092785;28;20852;-64
2022/10/03 13:38:54;;;;;;;3.50;1.60;;;;;;;;;;5092662;28;20446;-63
2022/10/03 13:41:29;;;;;;;5.40;1.50;;;;;;;;;;5092585;28;20480;-64
2022/10/03 13:43:59;;;;;;;5.93;1.57;;;;;;;;;;5092580;28;20527;-64
2022/10/03 13:46:28;;;;;;;8.50;2.10;;;;;;;;;;5092743;28;20453;-64
2022/10/03 13:48:57;;;;;;;6.60;1.60;;;;;;;;;;5092708;28;20545;-64
2022/10/03 13:51:28;;;;;;;3.83;1.17;;;;;;;;;;5092600;28;20962;-64
2022/10/03 13:54:00;;;;;;;3.50;1.33;;;;;;;;;;5092425;28;20489;-64
2022/10/03 13:56:35;;;;;;;2.00;1.30;;;;;;;;;;5092701;28;20461;-64
2022/10/03 13:59:06;;;;;;;3.43;1.20;;;;;;;;;;5092718;28;20538;-64
2022/10/03 14:01:46;;;;;;;5.33;1.17;;;;;;;;;;5092352;28;20934;-64
2022/10/03 14:04:24;;;;;;;3.37;1.43;;;;;;;;;;5092280;28;20474;-64
2022/10/03 14:06:54;;;;;;;6.00;1.23;;;;;;;;;;5092525;28;20450;-64
2022/10/03 14:09:38;;;;;;;3.90;1.47;;;;;;;;;;5093864;28;20832;-64
2022/10/03 14:12:11;;;;;;;4.70;1.40;;;;;;;;;;5096193;28;20450;-63
2022/10/03 14:14:47;;;;;;;4.27;1.80;;;;;;;;;;5096132;28;20759;-64
2022/10/03 14:17:17;;;;;;;6.67;1.63;;;;;;;;;;5096282;28;20828;-64
2022/10/03 14:19:50;;;;;;;4.23;1.47;;;;;;;;;;5096051;28;20446;-64
2022/10/03 14:22:31;;;;;;;3.40;1.10;;;;;;;;;;5095880;28;21054;-63
2022/10/03 14:25:04;;;;;;;3.93;1.20;;;;;;;;;;5095998;28;20973;-64
2022/10/03 14:27:37;;;;;;;4.57;1.67;;;;;;;;;;5096026;28;20442;-63
2022/10/03 14:30:08;;;;;;;7.73;1.73;;;;;;;;;;5096030;28;20533;-64
2022/10/03 14:32:38;;;;;;;6.00;1.97;;;;;;;;;;5095910;28;20458;-64
2022/10/03 14:35:09;;;;;;;7.80;1.73;;;;;;;;;;5096134;28;20486;-64
2022/10/03 14:37:40;;;;;;;5.70;1.67;;;;;;;;;;5095701;28;20474;-64
2022/10/03 14:40:16;;;;;;;6.30;1.50;;;;;;;;;;5095861;28;20453;-64
2022/10/03 14:43:07;;;;;;;6.33;1.43;;;;;;;;;;5095742;28;20454;-64
2022/10/03 14:45:38;;;;;;;3.20;1.83;;;;;;;;;;5080297;28;20454;-64
2022/10/03 14:48:07;;;;;;;5.50;1.43;;;;;;;;;;5095403;28;20850;-63
2022/10/03 14:50:35;;;;;;;8.10;2.43;;;;;;;;;;5095709;28;20450;-64
2022/10/03 14:53:05;;;;;;;3.73;1.13;;;;;;;;;;5095780;28;20447;-64
2022/10/03 14:55:34;;;;;;;2.57;1.40;;;;;;;;;;5095439;28;20450;-64
2022/10/03 14:58:04;;;;;;;7.40;1.70;;;;;;;;;;5095356;28;20469;-64
2022/10/03 15:00:38;;;;;;;5.07;1.93;;;;;;;;;;5095879;28;20446;-64
2022/10/03 15:03:20;;;;;;;7.17;2.67;;;;;;;;;;5095410;28;20461;-64
2022/10/03 15:06:18;;;;;;;4.33;1.40;;;;;;;;;;5095255;28;20450;-64
2022/10/03 15:08:47;;;;;;;7.50;3.10;;;;;;;;;;5095131;28;20450;-64
2022/10/03 15:11:17;;;;;;;2.13;1.27;;;;;;;;;;5095023;28;20442;-64
2022/10/03 15:13:45;;;;;;;6.27;1.67;;;;;;;;;;5095213;28;20482;-64
2022/10/03 15:16:15;;;;;;;3.27;1.50;;;;;;;;;;5094906;28;20478;-64
2022/10/03 15:18:46;;;;;;;5.13;1.60;;;;;;;;;;5095281;28;20447;-64
2022/10/03 15:21:16;;;;;;;6.30;1.93;;;;;;;;;;5095345;28;20802;-64
2022/10/03 15:23:44;;;;;;;5.93;2.00;;;;;;;;;;5094630;28;20912;-63
2022/10/03 15:26:15;;;;;;;2.87;1.30;;;;;;;;;;5095018;28;20453;-64
2022/10/03 15:28:45;;;;;;;3.43;1.77;;;;;;;;;;5094909;28;20446;-64
2022/10/03 15:31:15;;;;;;;3.80;1.53;;;;;;;;;;5094850;28;20791;-64
2022/10/03 15:33:44;;;;;;;5.90;2.33;;;;;;;;;;5094452;28;20941;-65
2022/10/03 15:36:13;;;;;;;4.87;1.37;;;;;;;;;;5094884;28;20446;-64
2022/10/03 15:38:41;;;;;;;9.83;2.07;;;;;;;;;;5094471;28;20942;-64
2022/10/03 15:41:09;;;;;;;4.63;2.03;;;;;;;;;;5094591;28;20533;-64
2022/10/03 15:43:41;;;;;;;5.77;2.37;;;;;;;;;;5094401;28;20878;-64
2022/10/03 15:46:15;;;;;;;6.40;1.77;;;;;;;;;;5094497;28;20533;-64
2022/10/03 15:48:43;;;;;;;2.60;1.23;;;;;;;;;;5094364;28;20542;-64
2022/10/03 15:51:18;;;;;;;5.83;1.90;;;;;;;;;;5094335;28;20541;-64
2022/10/03 15:53:48;;;;;;;6.07;1.70;;;;;;;;;;5094496;28;20446;-64